Hackberry, Arizona
Current Conditions -  °F | °C
As of 10:51 PM on Sunday 21 Dec 2014 (Local Time) from KIGM Reporting Station
Clear Clear  
Wind Chill: 38°   Ceiling: Unl
Heat Index: 38°   Visibility: NA
Dew Point: 34°   Wind: 3mph
Humidity: 86%   Direction: 110°ESE
Pressure: 30.1"   Gusts: NA
Location:  35.37°N, 113.73°W
Report Text: KIGM 220551Z AUTO 11003KT CLR 03/01 A3010 RMK AO2 SLP168 T00330011 10106 20028 51004 $
Loading
Personal Weather Stations






























Interactive Weather Map New forecast layout! Learn more

10-Day Weather Forecast

Advertisements
Track Severe Weather on mobile